Weyauwega, WI

12:32 AM CST on February 21, 2017 (GMT -0600)
Bear Lake | | Change Station
Active Advisory: Special Statement

Elev 806 ft 44.40 °N, 88.94 °W | Updated 2 minutes ago

Overcast
Overcast
50.8 °F
Feels Like 50.8 °F
N
0.0
Wind Variable Wind from SSW
Gusts 2.0 mph

Today
High -- | Low -- °F
--% Chance of Precip.
Yesterday
High -- | Low -- °F
Precip. -- in
Pressure 29.78 in
Visibility 2.0 miles
Clouds Overcast 400 ft
Dew Point 50 °F
Humidity 96%
Rainfall 0.00 in
Snow Depth Not available.
6:45 AM 5:33 PM
Waning Crescent, 28% visible
METAR KPCZ 210615Z AUTO 18004KT 2SM BR OVC004 12/12 A2978 RMK AO2 P0001 T01200115
Pressure 29.78 in
Visibility 2.0 miles
Clouds Overcast 400 ft
Dew Point 50 °F
Humidity 96%
Rainfall 0.00 in
Snow Depth Not available.
6:45 AM 5:33 PM
Waning Crescent, 28% visible
METAR KPCZ 210615Z AUTO 18004KT 2SM BR OVC004 12/12 A2978 RMK AO2 P0001 T01200115

Get Your Daily Forecast Email!

Thanks for signing up!

Be on the lookout for a verification email in your inbox.

You'll start receiving the daily forecast at 8 AM.

×

10-Day Weather Forecast

Almanac

Astronomy

Feb. 21, 2017 Rise Set
Actual Time
Civil Twilight
Nautical Twilight
Astronomical Twilight
Moon
Length of Visible Light
Length of Day
Tomorrow will be .
, % of the Moon is Illuminated

Today's Extremes

State Highs State Lows

Community

WunderPhotos

Upload Photos

1,962,540 photos uploaded!

WunderBlog® & News

Nearby

Air Quality

  Air Quality AQ Index Pollutant
Not available.

Snow Depth

Station Depth Elevation

Earthquake Activity

City Distance Mag. Time & Date
Minimum magnitude displayed is 2.5.

Coastal Water Temperatures

Place Temperature

Stations

Nearby Weather Stations

Station Location Temp. Windchill Dew Point Humidity Wind Precip. Elev Updated Type
                   

Watches & Warnings

Special Statement
Issued: 9:59 PM CST Feb. 20, 2017 – National Weather Service

... Watch out for areas of dense fog overnight...

Rain, melting snow and moist air are combining to produce areas of
dense fog tonight. The fog will be most dense where there is
significant snow cover and lighter winds. Slow down if you see fog
up ahead.



Rdm